createdAt,value
2017-11-17T00:00:02.372Z,98539.76
2017-11-17T00:01:05.047Z,98541.53
2017-11-17T00:02:07.674Z,98541.34
2017-11-17T00:03:10.277Z,98537.25
2017-11-17T00:04:12.872Z,98541.93
2017-11-17T00:05:15.774Z,98538.66
2017-11-17T00:06:18.353Z,98542.81
2017-11-17T00:07:20.961Z,98543.81
2017-11-17T00:08:23.563Z,98538.06
2017-11-17T00:09:26.193Z,98546.00
2017-11-17T00:10:28.831Z,98546.00
2017-11-17T00:11:31.744Z,98539.95
2017-11-17T00:12:34.485Z,98542.24
2017-11-17T00:13:37.140Z,98537.86
2017-11-17T00:14:39.861Z,98545.50
2017-11-17T00:15:42.528Z,98542.45
2017-11-17T00:16:45.198Z,98550.20
2017-11-17T00:17:48.183Z,98549.91
2017-11-17T00:18:50.821Z,98545.34
2017-11-17T00:19:53.460Z,98541.16
2017-11-17T00:20:56.134Z,98546.81
2017-11-17T00:21:58.795Z,98543.95
2017-11-17T00:23:01.449Z,98546.22
2017-11-17T00:24:04.358Z,98544.02
2017-11-17T00:25:06.990Z,98541.44
2017-11-17T00:26:09.686Z,98540.26
2017-11-17T00:27:12.332Z,98543.92
2017-11-17T00:28:14.935Z,98547.39
2017-11-17T00:29:17.568Z,98551.36
2017-11-17T00:30:20.474Z,98548.89
2017-11-17T00:31:23.122Z,98550.30
2017-11-17T00:32:25.752Z,98555.05
2017-11-17T00:33:28.369Z,98555.05
2017-11-17T00:34:31.027Z,98552.67
2017-11-17T00:35:33.666Z,98549.39
2017-11-17T00:36:36.629Z,98554.34
2017-11-17T00:37:39.270Z,98552.17
2017-11-17T00:38:43.496Z,98558.33
2017-11-17T00:39:46.133Z,98554.08
2017-11-17T00:40:49.487Z,98549.70
2017-11-17T00:41:52.102Z,98552.17
2017-11-17T00:42:55.108Z,98550.80
2017-11-17T00:43:57.788Z,98548.03
2017-11-17T00:45:00.439Z,98549.61
2017-11-17T00:46:03.124Z,98549.19
2017-11-17T00:47:05.806Z,98553.38
2017-11-17T00:48:08.445Z,98551.78
2017-11-17T00:49:11.399Z,98550.30
2017-11-17T00:50:14.057Z,98556.45
2017-11-17T00:51:16.713Z,98553.27
2017-11-17T00:52:19.363Z,98552.75
2017-11-17T00:53:22.782Z,98556.02
2017-11-17T00:54:25.390Z,98558.90
2017-11-17T00:55:28.300Z,98555.83
2017-11-17T00:56:30.954Z,98555.52
2017-11-17T00:57:33.568Z,98555.33
2017-11-17T00:58:36.221Z,98553.92
2017-11-17T00:59:38.885Z,98559.30
2017-11-17T01:00:41.541Z,98558.70
2017-11-17T01:01:44.507Z,98558.11
2017-11-17T01:02:47.153Z,98564.58
2017-11-17T01:03:49.807Z,98561.19
2017-11-17T01:04:52.544Z,98555.91
2017-11-17T01:05:55.206Z,98559.28
2017-11-17T01:06:57.867Z,98557.70
2017-11-17T01:08:00.837Z,98565.45
2017-11-17T01:09:03.693Z,98559.69
2017-11-17T01:10:06.258Z,98553.52
2017-11-17T01:11:09.611Z,98555.71
2017-11-17T01:12:12.313Z,98559.11
2017-11-17T01:13:14.995Z,98558.82
2017-11-17T01:14:17.868Z,98556.45
2017-11-17T01:15:20.536Z,98559.70
2017-11-17T01:16:23.122Z,98565.08
2017-11-17T01:17:25.756Z,98565.25
2017-11-17T01:18:28.343Z,98563.66
2017-11-17T01:19:30.951Z,98573.98
2017-11-17T01:20:33.825Z,98563.27
2017-11-17T01:21:36.456Z,98553.95
2017-11-17T01:22:39.072Z,98552.77
2017-11-17T01:23:41.694Z,98554.77
2017-11-17T01:24:44.417Z,98557.67
2017-11-17T01:25:47.079Z,98555.38
2017-11-17T01:26:49.986Z,98560.34
2017-11-17T01:27:52.640Z,98560.13
2017-11-17T01:28:55.276Z,98563.30
2017-11-17T01:29:57.909Z,98561.13
2017-11-17T01:31:00.564Z,98561.50
2017-11-17T01:32:03.227Z,98564.75
2017-11-17T01:33:06.151Z,98566.64
2017-11-17T01:34:08.758Z,98562.98
2017-11-17T01:35:11.383Z,98566.84
2017-11-17T01:36:14.139Z,98565.54
2017-11-17T01:37:16.799Z,98566.55
2017-11-17T01:38:19.775Z,98564.65
2017-11-17T01:39:22.390Z,98562.66
2017-11-17T01:40:25.017Z,98567.54
2017-11-17T01:41:27.658Z,98568.23
2017-11-17T01:42:30.471Z,98560.69
2017-11-17T01:43:33.129Z,98564.84
2017-11-17T01:44:36.100Z,98561.30
2017-11-17T01:45:38.721Z,98557.64
2017-11-17T01:46:41.393Z,98556.97
2017-11-17T01:47:44.025Z,98556.55
2017-11-17T01:48:46.660Z,98563.91
2017-11-17T01:49:49.297Z,98554.01
2017-11-17T01:50:52.226Z,98552.01
2017-11-17T01:51:54.893Z,98556.96
2017-11-17T01:52:57.634Z,98551.59
2017-11-17T01:54:00.276Z,98548.03
2017-11-17T01:55:02.916Z,98553.47
2017-11-17T01:56:05.608Z,98555.85
2017-11-17T01:57:08.546Z,98558.34
2017-11-17T01:58:11.184Z,98556.26
2017-11-17T01:59:13.802Z,98554.17
2017-11-17T02:00:16.458Z,98555.16
2017-11-17T02:16:26.535Z,98570.12
2017-11-17T02:17:29.433Z,98569.88
2017-11-17T02:18:32.060Z,98569.52
2017-11-17T02:19:34.725Z,98568.83
2017-11-17T02:20:37.364Z,98572.69
2017-11-17T02:21:40.300Z,98569.09
2017-11-17T02:22:42.969Z,98564.94
2017-11-17T02:23:45.636Z,98563.93
2017-11-17T02:24:48.269Z,98564.12
2017-11-17T02:25:50.912Z,98552.81
2017-11-17T02:26:53.533Z,98550.85
2017-11-17T02:27:56.392Z,98550.73
2017-11-17T02:28:59.056Z,98554.61
2017-11-17T02:30:01.696Z,98551.73
2017-11-17T02:31:04.324Z,98547.05
2017-11-17T02:32:06.962Z,98552.54
2017-11-17T02:33:09.539Z,98547.46
2017-11-17T02:34:12.395Z,98556.88
2017-11-17T02:35:15.014Z,98556.29
2017-11-17T02:36:18.031Z,98558.78
2017-11-17T02:37:21.454Z,98556.98
2017-11-17T02:38:24.109Z,98557.47
2017-11-17T02:39:26.757Z,98558.56
2017-11-17T02:40:29.718Z,98558.06
2017-11-17T02:41:32.981Z,98556.09
2017-11-17T02:42:35.628Z,98564.91
2017-11-17T02:43:38.320Z,98559.56
2017-11-17T02:44:40.982Z,98561.34
2017-11-17T02:45:43.655Z,98557.27
2017-11-17T02:46:46.628Z,98557.98
2017-11-17T02:47:49.238Z,98565.33
2017-11-17T02:48:51.832Z,98563.95
2017-11-17T02:49:54.503Z,98561.08
2017-11-17T02:50:57.173Z,98561.79
2017-11-17T02:51:59.917Z,98562.47
2017-11-17T02:53:03.014Z,98562.67
2017-11-17T02:54:05.745Z,98565.64
2017-11-17T02:55:08.443Z,98565.11
2017-11-17T02:56:11.112Z,98563.41
2017-11-17T02:57:14.918Z,98564.30
2017-11-17T02:58:17.580Z,98565.11
2017-11-17T02:59:20.562Z,98563.91
2017-11-17T03:00:24.128Z,98569.94
2017-11-17T03:01:27.258Z,98560.52
2017-11-17T03:02:29.933Z,98565.97
2017-11-17T03:03:32.489Z,98564.86
2017-11-17T03:04:35.061Z,98558.89
2017-11-17T03:05:38.013Z,98559.19
2017-11-17T03:06:40.689Z,98564.90
2017-11-17T03:07:43.341Z,98557.97
2017-11-17T03:08:46.054Z,98560.30
2017-11-17T03:09:48.693Z,98567.05
2017-11-17T03:10:51.305Z,98559.84
2017-11-17T03:11:54.103Z,98556.08
2017-11-17T03:12:56.793Z,98565.70
2017-11-17T03:13:59.365Z,98562.52
2017-11-17T03:15:01.942Z,98564.84
2017-11-17T03:16:04.765Z,98562.66
2017-11-17T03:17:07.318Z,98563.75
2017-11-17T03:18:10.264Z,98560.81
2017-11-17T03:19:12.856Z,98557.86
2017-11-17T03:20:15.519Z,98566.13
2017-11-17T03:21:18.099Z,98563.75
2017-11-17T03:22:20.677Z,98566.39
2017-11-17T03:23:23.224Z,98569.27
2017-11-17T03:24:26.085Z,98566.39
2017-11-17T03:25:28.666Z,98568.20
2017-11-17T03:26:31.248Z,98573.26
2017-11-17T03:27:33.808Z,98571.13
2017-11-17T03:28:36.372Z,98569.90
2017-11-17T03:29:38.972Z,98571.97
2017-11-17T03:30:41.871Z,98568.09
2017-11-17T03:31:44.451Z,98574.27
2017-11-17T03:32:47.087Z,98575.39
2017-11-17T03:33:49.712Z,98572.60
2017-11-17T03:34:52.453Z,98574.47
2017-11-17T03:35:55.140Z,98571.53
2017-11-17T03:36:58.148Z,98574.13
2017-11-17T03:38:00.837Z,98571.94
2017-11-17T03:39:03.586Z,98571.36
2017-11-17T03:40:06.261Z,98576.16
2017-11-17T03:41:08.897Z,98577.79
2017-11-17T03:42:11.479Z,98573.69
2017-11-17T03:43:14.314Z,98570.73
2017-11-17T03:44:16.871Z,98576.27
2017-11-17T03:45:19.461Z,98574.93
2017-11-17T03:46:22.104Z,98575.30
2017-11-17T03:47:24.743Z,98572.73
2017-11-17T03:48:27.304Z,98579.67
2017-11-17T03:49:30.153Z,98580.06
2017-11-17T03:50:32.706Z,98581.02
2017-11-17T03:51:35.281Z,98576.02
2017-11-17T03:52:37.849Z,98584.56
2017-11-17T03:53:40.468Z,98581.78
2017-11-17T03:54:43.893Z,98583.76
2017-11-17T03:55:46.856Z,98586.72
2017-11-17T03:56:49.540Z,98584.32
2017-11-17T03:57:52.233Z,98581.68
2017-11-17T03:58:55.018Z,98582.74
2017-11-17T03:59:58.021Z,98594.72
2017-11-17T04:01:00.888Z,98596.92
2017-11-17T04:02:04.141Z,98595.64
2017-11-17T04:03:06.860Z,98587.59
2017-11-17T04:04:09.522Z,98590.18
2017-11-17T04:05:12.182Z,98597.42
2017-11-17T04:06:14.863Z,98591.30
2017-11-17T04:07:17.575Z,98593.39
2017-11-17T04:08:20.519Z,98599.14
2017-11-17T04:09:23.207Z,98594.26
2017-11-17T04:10:25.897Z,98597.42
2017-11-17T04:11:28.575Z,98603.97
2017-11-17T04:12:31.248Z,98603.17
2017-11-17T04:13:33.911Z,98603.69
2017-11-17T04:14:36.888Z,98603.31
2017-11-17T04:15:39.593Z,98602.50
2017-11-17T04:16:42.253Z,98611.02
2017-11-17T04:17:44.942Z,98614.98
2017-11-17T04:18:47.590Z,98616.36
2017-11-17T04:19:50.359Z,98610.99
2017-11-17T04:20:53.291Z,98607.25
2017-11-17T04:21:56.013Z,98613.52
2017-11-17T04:22:58.820Z,98608.78
2017-11-17T04:24:01.586Z,98611.22
2017-11-17T04:25:04.200Z,98613.91
2017-11-17T04:26:06.871Z,98608.25
2017-11-17T04:27:09.573Z,98609.84
2017-11-17T04:28:12.223Z,98608.05
2017-11-17T04:29:14.820Z,98605.48
2017-11-17T04:30:17.449Z,98603.55
2017-11-17T04:31:20.082Z,98610.35
2017-11-17T04:32:23.041Z,98610.30
2017-11-17T04:33:25.708Z,98610.77
2017-11-17T04:34:28.370Z,98614.98
2017-11-17T04:35:31.041Z,98612.80
2017-11-17T04:36:33.730Z,98609.73
2017-11-17T04:37:36.392Z,98613.37
2017-11-17T04:38:39.333Z,98614.96
2017-11-17T04:39:41.995Z,98613.78
2017-11-17T04:40:44.639Z,98611.59
2017-11-17T04:41:47.313Z,98610.91
2017-11-17T04:42:49.986Z,98609.91
2017-11-17T04:43:52.657Z,98614.67
2017-11-17T04:44:55.603Z,98610.97
2017-11-17T04:45:58.284Z,98604.47
2017-11-17T04:47:00.931Z,98610.12
2017-11-17T04:48:03.599Z,98604.86
2017-11-17T04:49:06.256Z,98606.06
2017-11-17T04:50:08.918Z,98612.22
2017-11-17T04:51:11.621Z,98612.60
2017-11-17T04:52:14.384Z,98617.26
2017-11-17T04:53:17.035Z,98618.23
2017-11-17T04:54:19.678Z,98612.17
2017-11-17T04:55:22.409Z,98620.05
2017-11-17T04:56:25.340Z,98616.39
2017-11-17T04:57:28.264Z,98615.59
2017-11-17T04:58:30.962Z,98617.57
2017-11-17T04:59:33.632Z,98618.17
2017-11-17T05:15:04.871Z,98610.52
2017-11-17T05:16:07.479Z,98616.27
2017-11-17T05:17:10.017Z,98612.20
2017-11-17T05:18:13.524Z,98614.95
2017-11-17T05:19:16.204Z,98613.37
2017-11-17T05:20:19.143Z,98611.20
2017-11-17T05:21:21.812Z,98613.06
2017-11-17T05:22:24.482Z,98610.30
2017-11-17T05:23:28.104Z,98615.25
2017-11-17T05:24:30.804Z,98614.87
2017-11-17T05:25:33.472Z,98618.84
2017-11-17T05:26:36.638Z,98619.46
2017-11-17T05:27:39.354Z,98619.08
2017-11-17T05:28:42.058Z,98620.46
2017-11-17T05:29:44.705Z,98622.43
2017-11-17T05:30:47.394Z,98628.79
2017-11-17T05:31:50.075Z,98623.23
2017-11-17T05:32:53.014Z,98626.22
2017-11-17T05:33:55.695Z,98625.92
2017-11-17T05:34:58.404Z,98631.59
2017-11-17T05:36:01.179Z,98630.09
2017-11-17T05:37:03.829Z,98630.20
2017-11-17T05:38:06.525Z,98630.60
2017-11-17T05:39:09.479Z,98637.33
2017-11-17T05:40:12.172Z,98635.75
2017-11-17T05:41:14.832Z,98633.55
2017-11-17T05:42:17.486Z,98632.84
2017-11-17T05:43:20.208Z,98633.53
2017-11-17T05:44:22.900Z,98639.30
2017-11-17T05:45:25.909Z,98630.98
2017-11-17T05:46:28.826Z,98628.70
2017-11-17T05:47:31.467Z,98632.59
2017-11-17T05:48:34.149Z,98628.02
2017-11-17T05:49:36.808Z,98629.00
2017-11-17T05:50:39.610Z,98633.16
2017-11-17T05:51:42.569Z,98631.56
2017-11-17T05:52:45.340Z,98630.77
2017-11-17T05:53:48.020Z,98632.97
2017-11-17T05:54:50.720Z,98635.92
2017-11-17T05:55:53.468Z,98637.53
2017-11-17T05:56:56.163Z,98632.14
2017-11-17T05:57:58.818Z,98636.63
2017-11-17T05:59:01.521Z,98641.28
2017-11-17T06:00:04.193Z,98646.45
2017-11-17T06:01:06.924Z,98646.25
2017-11-17T06:02:09.679Z,98643.91
2017-11-17T06:03:12.713Z,98650.84
2017-11-17T06:04:15.386Z,98647.65
2017-11-17T06:05:18.078Z,98645.87
2017-11-17T06:06:20.750Z,98646.87
2017-11-17T06:07:23.448Z,98646.47
2017-11-17T06:08:26.105Z,98645.27
2017-11-17T06:09:29.134Z,98648.95
2017-11-17T06:10:31.829Z,98653.84
2017-11-17T06:11:34.523Z,98654.64
2017-11-17T06:12:37.181Z,98653.84
2017-11-17T06:13:39.860Z,98653.84
2017-11-17T06:14:42.508Z,98655.62
2017-11-17T06:15:45.205Z,98657.80
2017-11-17T06:16:47.852Z,98662.66
2017-11-17T06:17:50.536Z,98662.17
2017-11-17T06:18:53.196Z,98664.34
2017-11-17T06:19:55.888Z,98668.44
2017-11-17T06:20:58.536Z,98669.03
2017-11-17T06:22:01.208Z,98667.73
2017-11-17T06:23:03.912Z,98664.34
2017-11-17T06:24:07.125Z,98670.92
2017-11-17T06:25:10.688Z,98670.23
2017-11-17T06:26:13.415Z,98674.31
2017-11-17T06:27:16.083Z,98673.63
2017-11-17T06:28:18.804Z,98673.70
2017-11-17T06:29:21.496Z,98668.86
2017-11-17T06:30:24.172Z,98671.42
2017-11-17T06:31:27.153Z,98673.41
2017-11-17T06:32:29.879Z,98674.99
2017-11-17T06:33:32.580Z,98672.62
2017-11-17T06:34:35.244Z,98675.20
2017-11-17T06:35:37.889Z,98675.58
2017-11-17T06:36:40.607Z,98673.91
2017-11-17T06:37:43.613Z,98677.09
2017-11-17T06:38:46.328Z,98681.75
2017-11-17T06:39:48.936Z,98683.33
2017-11-17T06:40:51.546Z,98677.28
2017-11-17T06:41:54.141Z,98684.83
2017-11-17T06:42:56.858Z,98682.94
2017-11-17T06:43:59.829Z,98685.04
2017-11-17T06:45:03.280Z,98684.34
2017-11-17T06:46:05.991Z,98676.08
2017-11-17T06:47:08.691Z,98678.86
2017-11-17T06:48:11.442Z,98674.90
2017-11-17T06:49:15.117Z,98678.77
2017-11-17T06:50:17.903Z,98681.45
2017-11-17T06:51:20.607Z,98681.36
2017-11-17T06:52:23.358Z,98684.23
2017-11-17T06:53:26.051Z,98682.84
2017-11-17T06:54:28.805Z,98683.23
2017-11-17T06:55:31.810Z,98686.72
2017-11-17T06:56:34.552Z,98684.25
2017-11-17T06:57:37.298Z,98688.22
2017-11-17T06:58:39.965Z,98690.38
2017-11-17T06:59:42.645Z,98686.92
2017-11-17T07:00:45.352Z,98686.22
2017-11-17T07:01:48.358Z,98689.87
2017-11-17T07:02:51.015Z,98689.78
2017-11-17T07:03:53.709Z,98689.47
2017-11-17T07:04:56.418Z,98685.20
2017-11-17T07:05:59.045Z,98687.58
2017-11-17T07:07:02.389Z,98687.68
2017-11-17T07:08:05.325Z,98695.14
2017-11-17T07:09:08.022Z,98684.72
2017-11-17T07:10:10.684Z,98689.47
2017-11-17T07:11:13.409Z,98690.37
2017-11-17T07:12:16.103Z,98690.74
2017-11-17T07:13:18.954Z,98695.41
2017-11-17T07:14:22.039Z,98693.93
2017-11-17T07:15:24.717Z,98693.93
2017-11-17T07:16:27.400Z,98699.28
2017-11-17T07:17:30.112Z,98698.80
2017-11-17T07:18:32.811Z,98693.75
2017-11-17T07:19:35.502Z,98702.59
2017-11-17T07:20:38.522Z,98699.73
2017-11-17T07:21:41.232Z,98699.83
2017-11-17T07:22:43.967Z,98703.52
2017-11-17T07:23:46.733Z,98698.44
2017-11-17T07:24:49.440Z,98698.84
2017-11-17T07:25:52.149Z,98703.90
2017-11-17T07:26:55.116Z,98698.73
2017-11-17T07:27:57.829Z,98701.51
2017-11-17T07:29:00.550Z,98701.51
2017-11-17T07:30:03.254Z,98702.49
2017-11-17T07:31:05.945Z,98702.63
2017-11-17T07:32:08.663Z,98706.19
2017-11-17T07:33:11.664Z,98713.02
2017-11-17T07:34:14.324Z,98714.10
2017-11-17T07:35:17.096Z,98719.67
2017-11-17T07:36:19.781Z,98721.55
2017-11-17T07:37:22.448Z,98724.33
2017-11-17T07:38:25.099Z,98717.66
2017-11-17T07:39:28.116Z,98721.83
2017-11-17T07:40:30.779Z,98724.75
2017-11-17T07:41:33.468Z,98725.58
2017-11-17T07:42:36.149Z,98726.16
2017-11-17T07:43:38.817Z,98728.14
2017-11-17T07:44:41.557Z,98730.13
2017-11-17T07:45:44.520Z,98733.41
2017-11-17T07:46:47.268Z,98735.97
2017-11-17T07:47:49.925Z,98736.64
2017-11-17T07:48:52.621Z,98736.16
2017-11-17T07:49:55.248Z,98738.05
2017-11-17T07:50:58.088Z,98736.27
2017-11-17T07:52:01.444Z,98734.38
2017-11-17T07:53:04.116Z,98735.67
2017-11-17T07:54:06.739Z,98736.86
2017-11-17T07:55:09.386Z,98739.45
2017-11-17T07:56:12.055Z,98740.16
2017-11-17T07:57:14.823Z,98739.25
2017-11-17T07:58:17.808Z,98742.72
2017-11-17T07:59:20.455Z,98742.48
2017-11-17T08:00:23.145Z,98744.37
2017-11-17T08:01:25.844Z,98743.86
2017-11-17T08:02:28.791Z,98749.81
2017-11-17T08:03:31.479Z,98745.86
2017-11-17T08:04:34.549Z,98746.55
2017-11-17T08:05:37.208Z,98745.67
2017-11-17T08:06:40.014Z,98745.06
2017-11-17T08:07:42.917Z,98749.93
2017-11-17T08:08:45.565Z,98749.73
2017-11-17T08:09:48.640Z,98750.70
2017-11-17T08:10:51.612Z,98751.02
2017-11-17T08:11:54.340Z,98751.73
2017-11-17T08:12:57.002Z,98752.73
2017-11-17T08:13:59.677Z,98753.05
2017-11-17T08:30:38.229Z,98758.56
2017-11-17T08:31:41.164Z,98760.94
2017-11-17T08:32:43.936Z,98754.65
2017-11-17T08:33:46.708Z,98759.63
2017-11-17T08:34:49.421Z,98761.63
2017-11-17T08:35:52.623Z,98763.73
2017-11-17T08:36:55.509Z,98763.91
2017-11-17T08:37:58.571Z,98765.70
2017-11-17T08:39:01.287Z,98762.73
2017-11-17T08:40:03.967Z,98765.50
2017-11-17T08:41:06.763Z,98765.70
2017-11-17T08:42:09.745Z,98768.45
2017-11-17T08:43:12.444Z,98767.14
2017-11-17T08:44:15.128Z,98770.11
2017-11-17T08:45:17.828Z,98769.29
2017-11-17T08:46:20.523Z,98769.14
2017-11-17T08:47:23.225Z,98772.41
2017-11-17T08:48:26.093Z,98765.86
2017-11-17T08:49:28.691Z,98767.11
2017-11-17T08:50:31.272Z,98776.64
2017-11-17T08:51:33.897Z,98766.86
2017-11-17T08:52:36.495Z,98771.41
2017-11-17T08:53:39.079Z,98766.80
2017-11-17T08:54:41.956Z,98772.16
2017-11-17T08:55:44.670Z,98768.55
2017-11-17T08:56:47.388Z,98771.63
2017-11-17T08:57:50.094Z,98775.45
2017-11-17T08:58:52.884Z,98770.91
2017-11-17T08:59:55.634Z,98765.31
2017-11-17T09:00:58.819Z,98771.23
2017-11-17T09:02:01.595Z,98773.91
2017-11-17T09:03:04.913Z,98770.41
2017-11-17T09:04:08.146Z,98770.50
2017-11-17T09:05:10.812Z,98772.45
2017-11-17T09:06:13.536Z,98779.45
2017-11-17T09:07:16.538Z,98774.19
2017-11-17T09:08:19.234Z,98774.95
2017-11-17T09:09:22.545Z,98777.48
2017-11-17T09:10:25.191Z,98771.52
2017-11-17T09:11:27.818Z,98779.21
2017-11-17T09:12:30.675Z,98777.65
2017-11-17T09:13:33.647Z,98775.98
2017-11-17T09:14:36.328Z,98778.36
2017-11-17T09:15:39.033Z,98770.84
2017-11-17T09:16:43.959Z,98774.70
2017-11-17T09:17:47.136Z,98778.34
2017-11-17T09:18:49.824Z,98772.29
2017-11-17T09:19:52.798Z,98769.17
2017-11-17T09:20:55.486Z,98776.41
2017-11-17T09:21:58.192Z,98773.06
2017-11-17T09:23:00.910Z,98778.57
2017-11-17T09:24:03.642Z,98773.55
2017-11-17T09:25:06.331Z,98772.05
2017-11-17T09:26:09.352Z,98768.33
2017-11-17T09:27:13.011Z,98769.29
2017-11-17T09:28:15.788Z,98776.33
2017-11-17T09:29:18.624Z,98771.23
2017-11-17T09:30:21.386Z,98775.00
2017-11-17T09:31:24.110Z,98773.89
2017-11-17T09:32:27.272Z,98778.26
2017-11-17T09:33:29.981Z,98775.55
2017-11-17T09:34:32.735Z,98780.13
2017-11-17T09:35:35.458Z,98782.84
2017-11-17T09:36:38.210Z,98784.04
2017-11-17T09:37:40.929Z,98783.39
2017-11-17T09:38:44.124Z,98779.76
2017-11-17T09:39:46.877Z,98780.70
2017-11-17T09:40:49.560Z,98781.86
2017-11-17T09:41:52.845Z,98783.62
2017-11-17T09:42:55.536Z,98783.00
2017-11-17T09:43:58.237Z,98779.89
2017-11-17T09:45:01.740Z,98778.44
2017-11-17T09:46:06.150Z,98788.13
2017-11-17T09:47:08.850Z,98781.80
2017-11-17T09:48:12.239Z,98782.45
2017-11-17T09:49:14.934Z,98782.70
2017-11-17T09:50:17.667Z,98788.05
2017-11-17T09:51:20.813Z,98791.64
2017-11-17T09:52:23.531Z,98792.18
2017-11-17T09:53:26.217Z,98788.70
2017-11-17T09:54:28.896Z,98789.66
2017-11-17T09:55:31.609Z,98794.59
2017-11-17T09:56:34.649Z,98795.03
2017-11-17T09:57:38.144Z,98792.16
2017-11-17T09:58:40.835Z,98789.88
2017-11-17T09:59:43.529Z,98798.52
2017-11-17T10:00:46.221Z,98800.47
2017-11-17T10:01:48.917Z,98797.83
2017-11-17T10:02:51.613Z,98796.56
2017-11-17T10:03:54.327Z,98795.95
2017-11-17T10:04:57.014Z,98791.27
2017-11-17T10:05:59.702Z,98791.06
2017-11-17T10:07:02.382Z,98787.87
2017-11-17T10:08:05.090Z,98786.28
2017-11-17T10:09:07.865Z,98790.86
2017-11-17T10:10:11.023Z,98783.63
2017-11-17T10:11:13.686Z,98784.93
2017-11-17T10:12:16.608Z,98780.91
2017-11-17T10:13:19.363Z,98785.17
2017-11-17T10:14:22.307Z,98784.67
2017-11-17T10:15:24.984Z,98785.07
2017-11-17T10:16:31.627Z,98787.98
2017-11-17T10:17:34.333Z,98794.68
2017-11-17T10:18:37.083Z,98784.52
2017-11-17T10:19:39.811Z,98785.12
2017-11-17T10:20:42.514Z,98788.00
2017-11-17T10:21:45.190Z,98786.20
2017-11-17T10:24:01.465Z,98793.69
2017-11-17T10:25:04.354Z,98787.85
2017-11-17T10:26:07.009Z,98789.39
2017-11-17T10:27:09.734Z,98789.87
2017-11-17T10:28:13.130Z,98791.69
2017-11-17T10:29:15.837Z,98788.55
2017-11-17T10:30:18.932Z,98788.94
2017-11-17T10:31:21.590Z,98790.71
2017-11-17T10:32:24.243Z,98792.97
2017-11-17T10:33:26.866Z,98786.19
2017-11-17T10:34:29.572Z,98787.03
2017-11-17T10:35:32.228Z,98788.95
2017-11-17T10:36:35.185Z,98786.45
2017-11-17T10:37:37.908Z,98787.38
2017-11-17T10:38:41.230Z,98784.34
2017-11-17T10:39:44.016Z,98784.75
2017-11-17T10:40:46.681Z,98781.86
2017-11-17T10:41:49.652Z,98779.90
2017-11-17T10:42:53.214Z,98783.56
2017-11-17T10:43:56.058Z,98783.52
2017-11-17T10:44:58.734Z,98783.09
2017-11-17T10:46:02.261Z,98788.50
2017-11-17T10:47:06.389Z,98784.39
2017-11-17T10:48:08.989Z,98786.89
2017-11-17T10:49:11.672Z,98784.97
2017-11-17T10:50:14.434Z,98783.02
2017-11-17T10:51:17.168Z,98784.53
2017-11-17T10:52:19.901Z,98785.55
2017-11-17T10:53:22.597Z,98778.37
2017-11-17T10:54:26.095Z,98777.67
2017-11-17T10:55:28.939Z,98783.14
2017-11-17T10:56:31.693Z,98782.98
2017-11-17T10:57:34.362Z,98778.48
2017-11-17T10:58:37.019Z,98780.33
2017-11-17T11:15:34.492Z,98773.89
2017-11-17T11:16:37.543Z,98772.39
2017-11-17T11:17:40.484Z,98774.22
2017-11-17T11:18:44.426Z,98776.41
2017-11-17T11:19:47.165Z,98782.72
2017-11-17T11:20:50.485Z,98776.73
2017-11-17T11:21:53.119Z,98778.31
2017-11-17T11:22:55.899Z,98777.80
2017-11-17T11:23:58.627Z,98780.94
2017-11-17T11:25:01.356Z,98778.53
2017-11-17T11:26:04.073Z,98780.86
2017-11-17T11:27:07.039Z,98774.50
2017-11-17T11:28:10.308Z,98778.32
2017-11-17T11:29:13.055Z,98774.61
2017-11-17T11:30:15.812Z,98774.38
2017-11-17T11:31:18.611Z,98772.60
2017-11-17T11:32:21.413Z,98773.33
2017-11-17T11:33:24.420Z,98768.55
2017-11-17T11:34:27.116Z,98766.47
2017-11-17T11:35:29.812Z,98767.03
2017-11-17T11:36:32.483Z,98769.56
2017-11-17T11:37:35.241Z,98769.69
2017-11-17T11:38:38.012Z,98768.70
2017-11-17T11:39:41.062Z,98767.38
2017-11-17T11:40:43.831Z,98769.62
2017-11-17T11:41:46.500Z,98769.12
2017-11-17T11:42:49.219Z,98769.68
2017-11-17T11:43:51.871Z,98769.58
2017-11-17T11:44:54.611Z,98767.34
2017-11-17T11:45:57.691Z,98767.33
2017-11-17T11:47:00.370Z,98771.47
2017-11-17T11:48:03.132Z,98770.66
2017-11-17T11:49:05.904Z,98770.53
2017-11-17T11:50:08.632Z,98768.15
2017-11-17T11:51:11.338Z,98777.02
2017-11-17T11:52:14.528Z,98771.83
2017-11-17T11:53:17.215Z,98767.98
2017-11-17T11:54:19.984Z,98773.74
2017-11-17T11:55:23.882Z,98765.20
2017-11-17T11:56:26.609Z,98770.78
2017-11-17T11:57:29.307Z,98763.69
2017-11-17T11:58:32.462Z,98761.04
2017-11-17T11:59:35.382Z,98769.97
2017-11-17T12:00:38.374Z,98770.25
2017-11-17T12:01:41.387Z,98767.33
2017-11-17T12:02:44.213Z,98763.48
2017-11-17T12:03:46.937Z,98763.67
2017-11-17T12:04:50.777Z,98766.41
2017-11-17T12:05:53.451Z,98763.42
2017-11-17T12:06:56.240Z,98759.59
2017-11-17T12:07:59.847Z,98759.23
2017-11-17T12:09:02.760Z,98762.02
2017-11-17T12:10:05.459Z,98762.25
2017-11-17T12:11:08.160Z,98758.72
2017-11-17T12:12:11.277Z,98759.53
2017-11-17T12:13:14.493Z,98757.33
2017-11-17T12:14:17.150Z,98762.95
2017-11-17T12:15:20.189Z,98760.01
2017-11-17T12:16:22.886Z,98756.93
2017-11-17T12:17:25.671Z,98766.41
2017-11-17T12:18:28.411Z,98754.00
2017-11-17T12:19:31.377Z,98759.73
2017-11-17T12:20:35.584Z,98756.72
2017-11-17T12:21:39.750Z,98758.98
2017-11-17T12:22:42.409Z,98750.64
2017-11-17T12:23:45.150Z,98754.68
2017-11-17T12:24:47.900Z,98749.34
2017-11-17T12:25:50.582Z,98749.87
2017-11-17T12:26:54.271Z,98752.16
2017-11-17T12:27:57.442Z,98746.05
2017-11-17T12:29:00.981Z,98748.30
2017-11-17T12:30:04.094Z,98747.56
2017-11-17T12:31:06.891Z,98744.13
2017-11-17T12:32:09.572Z,98743.86
2017-11-17T12:33:12.295Z,98749.17
2017-11-17T12:34:16.132Z,98740.30
2017-11-17T12:35:18.941Z,98744.31
2017-11-17T12:36:21.633Z,98744.50
2017-11-17T12:37:24.919Z,98742.03
2017-11-17T12:38:27.620Z,98748.25
2017-11-17T12:39:30.910Z,98742.55
2017-11-17T12:40:34.217Z,98743.25
2017-11-17T12:41:37.005Z,98742.03
2017-11-17T12:42:39.764Z,98742.53
2017-11-17T12:43:42.456Z,98735.91
2017-11-17T12:44:45.548Z,98741.69
2017-11-17T12:45:50.852Z,98744.13
2017-11-17T12:46:51.029Z,98746.33
2017-11-17T12:47:54.527Z,98743.02
2017-11-17T12:48:57.249Z,98747.15
2017-11-17T12:50:00.111Z,98747.00
2017-11-17T12:51:03.597Z,98745.23
2017-11-17T12:52:06.707Z,98739.84
2017-11-17T12:53:09.563Z,98744.03
2017-11-17T12:54:12.191Z,98743.13
2017-11-17T12:55:15.462Z,98746.52
2017-11-17T12:56:18.113Z,98739.67
2017-11-17T12:57:20.799Z,98744.22
2017-11-17T12:58:23.546Z,98739.14
2017-11-17T12:59:26.262Z,98740.38
2017-11-17T13:00:29.019Z,98741.06
2017-11-17T13:01:32.400Z,98739.45
2017-11-17T13:02:35.109Z,98737.05
2017-11-17T13:03:37.789Z,98741.20
2017-11-17T13:04:40.501Z,98739.34
2017-11-17T13:05:43.766Z,98736.05
2017-11-17T13:06:46.737Z,98735.37
2017-11-17T13:07:49.537Z,98736.29
2017-11-17T13:08:52.420Z,98730.47
2017-11-17T13:09:55.249Z,98726.90
2017-11-17T13:10:57.985Z,98730.75
2017-11-17T13:12:00.784Z,98730.35
2017-11-17T13:13:03.503Z,98728.29
2017-11-17T13:14:06.341Z,98726.83
2017-11-17T13:15:09.447Z,98727.32
2017-11-17T13:16:12.187Z,98725.83
2017-11-17T13:17:14.941Z,98728.63
2017-11-17T13:18:17.823Z,98722.39
2017-11-17T13:19:20.733Z,98728.58